Time;durP1;ratioP1;P1;durP2;ratioP2;P2;SDS_P1;SDS_P2;PMS_P1;PMS_P2;Temp;Humidity;BMP_temperature;BMP_pressure;BME280_temperature;BME280_humidity;BME280_pressure;Samples;Min_cycle;Max_cycle;Signal;HPM_P1;HPM_P2
2023/10/11 00:01:04;;;;;;;11.17;8.37;;;;;;;13.33;100.00;100316.34;4985865;28;20230;-66
2023/10/11 00:03:32;;;;;;;10.87;7.67;;;;;;;13.19;100.00;100312.84;4979641;28;20707;-65
2023/10/11 00:05:59;;;;;;;11.00;8.03;;;;;;;13.20;100.00;100319.69;4992114;28;20603;-66
2023/10/11 00:08:30;;;;;;;14.57;7.63;;;;;;;13.20;100.00;100308.53;4991040;28;20180;-66
2023/10/11 00:11:00;;;;;;;14.20;8.50;;;;;;;13.10;100.00;100310.00;4984161;28;20257;-66
2023/10/11 00:13:32;;;;;;;11.30;8.30;;;;;;;13.08;100.00;100308.38;4989490;28;20194;-65
2023/10/11 00:15:59;;;;;;;12.83;8.00;;;;;;;13.03;100.00;100315.56;4992345;28;20210;-66
2023/10/11 00:18:26;;;;;;;14.10;8.43;;;;;;;13.04;100.00;100308.66;4990991;28;20270;-67
2023/10/11 00:20:56;;;;;;;13.33;8.30;;;;;;;13.01;100.00;100311.41;4988723;28;20276;-66
2023/10/11 00:23:24;;;;;;;11.43;7.83;;;;;;;12.93;100.00;100305.91;4990098;28;20176;-66
2023/10/11 00:25:51;;;;;;;16.10;9.40;;;;;;;12.88;100.00;100308.75;4992115;28;20191;-66
2023/10/11 00:28:23;;;;;;;11.20;8.17;;;;;;;12.79;100.00;100310.16;4991958;28;20262;-65
2023/10/11 00:30:48;;;;;;;11.83;7.77;;;;;;;12.75;100.00;100311.22;4983754;28;20234;-65
2023/10/11 00:33:14;;;;;;;13.23;8.83;;;;;;;12.72;100.00;100303.69;4987651;28;20238;-66
2023/10/11 00:35:46;;;;;;;15.13;8.83;;;;;;;12.66;100.00;100306.63;4992182;28;20226;-67
2023/10/11 00:38:18;;;;;;;11.57;9.03;;;;;;;12.55;100.00;100309.84;4986917;28;20207;-65
2023/10/11 00:40:44;;;;;;;10.63;7.90;;;;;;;12.57;100.00;100306.25;4976638;28;20234;-67
2023/10/11 00:43:14;;;;;;;14.33;8.63;;;;;;;12.51;100.00;100301.47;4989888;28;20259;-66
2023/10/11 00:45:41;;;;;;;11.77;8.47;;;;;;;12.46;100.00;100300.09;4990792;28;20187;-66
2023/10/11 00:48:11;;;;;;;10.63;7.97;;;;;;;12.34;100.00;100296.47;4990550;28;20175;-66
2023/10/11 00:50:36;;;;;;;10.90;7.60;;;;;;;12.30;100.00;100295.81;4989725;28;20230;-64
2023/10/11 00:53:01;;;;;;;13.00;8.40;;;;;;;12.29;100.00;100301.06;4994175;28;20174;-65
2023/10/11 00:55:29;;;;;;;10.80;8.20;;;;;;;12.20;100.00;100305.84;4994331;28;20186;-64
2023/10/11 00:57:55;;;;;;;13.63;8.17;;;;;;;12.23;100.00;100300.53;4996007;28;20186;-64
2023/10/11 01:00:21;;;;;;;10.13;7.93;;;;;;;11.98;100.00;100308.00;4987771;28;20223;-64
2023/10/11 01:02:52;;;;;;;12.03;9.13;;;;;;;12.04;100.00;100295.59;4993776;28;20258;-66
2023/10/11 01:05:22;;;;;;;15.60;8.40;;;;;;;12.00;100.00;100301.03;4994226;28;20238;-65
2023/10/11 01:07:50;;;;;;;12.40;8.50;;;;;;;11.94;100.00;100300.44;4995729;28;20189;-64
2023/10/11 01:10:16;;;;;;;14.03;8.67;;;;;;;11.96;100.00;100300.38;4985912;28;20185;-65
2023/10/11 01:12:41;;;;;;;10.33;8.07;;;;;;;11.92;100.00;100299.69;5008283;28;20194;-65
2023/10/11 01:15:11;;;;;;;12.67;8.53;;;;;;;11.91;100.00;100298.00;4994142;28;20246;-65
2023/10/11 01:17:38;;;;;;;12.20;8.47;;;;;;;11.94;100.00;100299.59;4994112;28;20257;-65
2023/10/11 01:20:13;;;;;;;13.43;8.90;;;;;;;11.83;100.00;100291.63;4986938;28;20214;-64
2023/10/11 01:22:40;;;;;;;12.63;8.50;;;;;;;11.78;100.00;100294.47;4993386;28;20687;-66
2023/10/11 01:25:06;;;;;;;13.67;8.57;;;;;;;11.79;100.00;100289.25;4993973;28;20180;-64
2023/10/11 01:27:31;;;;;;;11.77;9.10;;;;;;;11.75;100.00;100297.22;4995303;28;20190;-65
2023/10/11 01:30:00;;;;;;;14.23;8.60;;;;;;;11.71;100.00;100296.56;4995212;28;20266;-64
2023/10/11 01:32:25;;;;;;;15.87;9.27;;;;;;;11.59;100.00;100295.50;4983553;28;20234;-69
2023/10/11 01:34:51;;;;;;;14.90;9.90;;;;;;;11.61;100.00;100295.44;4994943;28;20188;-64
2023/10/11 01:37:18;;;;;;;13.87;8.93;;;;;;;11.59;100.00;100289.53;4993961;28;20226;-64
2023/10/11 01:39:43;;;;;;;11.47;9.07;;;;;;;11.54;100.00;100287.19;4995271;28;20670;-64
2023/10/11 01:42:08;;;;;;;13.50;9.50;;;;;;;11.53;100.00;100282.97;4999561;28;20309;-65
2023/10/11 01:44:34;;;;;;;15.00;10.10;;;;;;;11.46;100.00;100285.06;4994698;28;20226;-64
2023/10/11 01:47:01;;;;;;;13.10;9.47;;;;;;;11.45;100.00;100280.81;4994915;28;20512;-64
2023/10/11 01:49:26;;;;;;;11.50;8.37;;;;;;;11.44;100.00;100279.16;4994816;28;20179;-64
2023/10/11 01:51:52;;;;;;;12.77;8.90;;;;;;;11.44;100.00;100280.91;4993032;28;20227;-63
2023/10/11 01:54:22;;;;;;;13.00;9.73;;;;;;;11.43;100.00;100277.47;4994917;28;20180;-65
2023/10/11 01:56:48;;;;;;;15.63;8.80;;;;;;;11.33;100.00;100273.75;4993079;28;20190;-64
2023/10/11 01:59:15;;;;;;;14.53;10.73;;;;;;;11.36;100.00;100271.03;4993847;28;20195;-65
2023/10/11 02:01:41;;;;;;;13.00;8.93;;;;;;;11.37;100.00;100277.81;4995097;28;20636;-63
2023/10/11 02:04:17;;;;;;;10.80;8.60;;;;;;;11.37;100.00;100274.44;4992653;28;20208;-64
2023/10/11 02:06:42;;;;;;;12.13;9.20;;;;;;;11.28;100.00;100278.34;4987499;28;20186;-64
2023/10/11 02:09:09;;;;;;;13.77;9.13;;;;;;;11.14;100.00;100279.09;4994536;28;20175;-64
2023/10/11 02:11:35;;;;;;;16.67;9.90;;;;;;;11.17;100.00;100280.66;4985759;28;20687;-65
2023/10/11 02:14:00;;;;;;;14.40;10.33;;;;;;;11.16;100.00;100274.66;4992728;28;20631;-64
2023/10/11 02:16:32;;;;;;;12.47;9.90;;;;;;;11.20;100.00;100278.75;4992754;28;20234;-65
2023/10/11 02:19:00;;;;;;;17.70;10.33;;;;;;;11.23;100.00;100278.59;4993027;28;20172;-64
2023/10/11 02:21:27;;;;;;;12.83;9.63;;;;;;;11.26;100.00;100275.00;4993809;28;20261;-67
2023/10/11 02:23:56;;;;;;;12.87;10.07;;;;;;;11.21;100.00;100270.13;4998783;28;20507;-64
2023/10/11 02:26:28;;;;;;;16.07;10.37;;;;;;;11.22;100.00;100273.53;4994255;28;20180;-64
2023/10/11 02:28:53;;;;;;;17.10;10.60;;;;;;;11.12;100.00;100273.19;4994361;28;20184;-63
2023/10/11 02:31:20;;;;;;;14.60;10.80;;;;;;;11.06;100.00;100270.94;4993149;28;20230;-64
2023/10/11 02:33:45;;;;;;;15.23;10.50;;;;;;;11.05;100.00;100264.97;4992912;28;20254;-63
2023/10/11 02:36:17;;;;;;;15.40;9.10;;;;;;;11.07;100.00;100259.75;4992613;28;20191;-63
2023/10/11 02:38:50;;;;;;;20.17;10.57;;;;;;;11.02;100.00;100262.56;4992524;28;20237;-63
2023/10/11 02:41:20;;;;;;;14.00;9.57;;;;;;;11.08;100.00;100269.94;4993586;28;20292;-65
2023/10/11 02:43:50;;;;;;;12.30;8.83;;;;;;;10.92;100.00;100263.97;4991628;28;20179;-64
2023/10/11 02:46:23;;;;;;;14.90;9.97;;;;;;;11.00;100.00;100261.78;4994096;28;20218;-63
2023/10/11 02:48:49;;;;;;;17.87;10.53;;;;;;;11.06;100.00;100264.03;4993431;28;20578;-64
2023/10/11 02:51:24;;;;;;;13.30;9.73;;;;;;;10.96;100.00;100268.88;4985463;28;20254;-65
2023/10/11 02:53:52;;;;;;;12.43;10.23;;;;;;;10.75;100.00;100263.09;4993354;28;20264;-65
2023/10/11 02:56:18;;;;;;;16.53;9.90;;;;;;;10.88;100.00;100267.59;4993803;28;20685;-64
2023/10/11 02:58:43;;;;;;;14.03;10.37;;;;;;;10.91;100.00;100264.88;4993600;28;20214;-65
2023/10/11 03:01:16;;;;;;;11.83;8.40;;;;;;;10.85;100.00;100262.63;4984896;28;20246;-65
2023/10/11 03:03:43;;;;;;;12.83;9.10;;;;;;;10.83;100.00;100267.88;4991881;28;20203;-64
2023/10/11 03:06:08;;;;;;;13.73;9.20;;;;;;;10.84;100.00;100266.97;4981017;28;20583;-64
2023/10/11 03:08:34;;;;;;;13.30;9.33;;;;;;;10.86;100.00;100266.88;4983521;28;20214;-66
2023/10/11 03:11:04;;;;;;;13.10;10.00;;;;;;;10.80;100.00;100258.56;4984948;28;20218;-64
2023/10/11 03:13:31;;;;;;;17.30;10.50;;;;;;;10.69;100.00;100258.28;4999952;28;20268;-64
2023/10/11 03:15:58;;;;;;;18.53;9.53;;;;;;;10.63;100.00;100250.88;4988319;28;20201;-64
2023/10/11 03:18:31;;;;;;;12.20;9.40;;;;;;;10.79;100.00;100253.47;4989950;28;20190;-64
2023/10/11 03:21:09;;;;;;;14.43;8.83;;;;;;;10.83;100.00;100249.84;4984914;28;20238;-64
2023/10/11 03:23:43;;;;;;;16.57;10.13;;;;;;;10.83;100.00;100249.84;4990847;28;20186;-63
2023/10/11 03:26:17;;;;;;;14.20;9.53;;;;;;;10.87;100.00;100248.75;4993310;28;20183;-65
2023/10/11 03:28:56;;;;;;;14.80;9.33;;;;;;;10.81;100.00;100242.19;4991544;28;20186;-64
2023/10/11 03:31:22;;;;;;;16.13;9.63;;;;;;;10.79;100.00;100240.63;4972936;28;20265;-65
2023/10/11 03:33:47;;;;;;;16.00;9.80;;;;;;;10.56;100.00;100240.09;4998043;28;20262;-64
2023/10/11 03:36:20;;;;;;;10.97;8.70;;;;;;;10.66;100.00;100238.69;4993101;28;20645;-65
2023/10/11 03:38:51;;;;;;;11.63;9.80;;;;;;;10.65;100.00;100233.63;4991400;28;20183;-64
2023/10/11 03:41:28;;;;;;;14.03;9.23;;;;;;;10.56;100.00;100229.81;4992324;28;20712;-63
2023/10/11 03:44:02;;;;;;;14.07;9.83;;;;;;;10.51;100.00;100228.41;4991488;28;20261;-66
2023/10/11 03:46:28;;;;;;;11.47;8.43;;;;;;;10.52;100.00;100227.47;4992655;28;20502;-64
2023/10/11 03:49:14;;;;;;;14.10;9.40;;;;;;;10.51;100.00;100229.22;4983774;28;20261;-65
2023/10/11 03:51:43;;;;;;;9.63;8.67;;;;;;;10.41;100.00;100228.03;4986670;28;20257;-66
2023/10/11 03:54:09;;;;;;;10.83;9.07;;;;;;;10.42;100.00;100227.97;4989976;28;20171;-64
2023/10/11 03:56:35;;;;;;;13.50;10.00;;;;;;;10.42;100.00;100224.53;4990766;28;20187;-65
2023/10/11 03:59:00;;;;;;;10.90;8.43;;;;;;;10.37;100.00;100229.09;4992693;28;20179;-64
2023/10/11 04:01:28;;;;;;;9.93;8.27;;;;;;;10.37;100.00;100229.09;4992296;28;20293;-64
2023/10/11 04:03:53;;;;;;;12.00;8.27;;;;;;;10.33;100.00;100228.38;4996768;28;20191;-63
2023/10/11 04:06:19;;;;;;;14.97;8.93;;;;;;;10.21;100.00;100231.59;4992345;28;20218;-64
2023/10/11 04:09:00;;;;;;;12.60;8.37;;;;;;;10.26;100.00;100230.44;4977290;28;20324;-65
2023/10/11 04:11:37;;;;;;;13.70;9.57;;;;;;;10.23;100.00;100232.34;4983374;28;20218;-64
2023/10/11 04:14:03;;;;;;;12.43;9.37;;;;;;;10.08;100.00;100228.81;4980055;28;20197;-63
2023/10/11 04:16:28;;;;;;;15.67;9.87;;;;;;;10.13;100.00;100227.69;4991994;28;20217;-64
2023/10/11 04:18:54;;;;;;;12.77;9.10;;;;;;;10.15;100.00;100222.47;4991995;28;20191;-64
2023/10/11 04:23:48;;;;;;;10.70;8.53;;;;;;;10.15;100.00;100227.59;4995272;28;20183;-64
2023/10/11 04:29:06;;;;;;;16.57;9.00;;;;;;;10.08;100.00;100236.53;4980595;28;20300;-64
2023/10/11 04:31:36;;;;;;;14.57;9.50;;;;;;;10.04;100.00;100223.00;4992322;28;20636;-64
2023/10/11 04:34:01;;;;;;;14.03;9.27;;;;;;;10.03;100.00;100226.47;4995499;28;20171;-65
2023/10/11 04:36:28;;;;;;;10.93;8.57;;;;;;;9.92;100.00;100223.59;4990547;28;20650;-63
2023/10/11 04:39:02;;;;;;;13.80;9.60;;;;;;;9.95;100.00;100224.28;4991973;28;20230;-64
2023/10/11 04:41:36;;;;;;;14.47;9.90;;;;;;;10.00;100.00;100231.78;4992420;28;20222;-64
2023/10/11 04:44:13;;;;;;;12.20;9.57;;;;;;;9.95;100.00;100229.44;4989674;28;20178;-64
2023/10/11 04:46:38;;;;;;;12.40;9.90;;;;;;;9.94;100.00;100230.34;4988244;28;20175;-64
2023/10/11 04:51:59;;;;;;;14.83;10.80;;;;;;;9.78;100.00;100227.69;4959460;28;20303;-64
2023/10/11 04:54:36;;;;;;;11.50;9.87;;;;;;;9.78;100.00;100229.44;4970150;28;20180;-64
2023/10/11 04:57:17;;;;;;;12.93;9.47;;;;;;;9.88;100.00;100237.53;4969950;28;20326;-64
2023/10/11 04:59:43;;;;;;;15.03;10.07;;;;;;;9.89;100.00;100244.34;4970187;28;20236;-64
2023/10/11 05:02:09;;;;;;;14.53;9.57;;;;;;;9.91;100.00;100243.34;4959239;28;20232;-63
2023/10/11 05:04:41;;;;;;;17.60;11.20;;;;;;;9.90;100.00;100239.09;4969587;28;20188;-63
2023/10/11 05:07:10;;;;;;;17.17;10.30;;;;;;;9.89;100.00;100242.59;4970113;28;20330;-64
2023/10/11 05:09:39;;;;;;;16.13;10.47;;;;;;;9.93;100.00;100236.38;4969681;28;20196;-64
2023/10/11 05:20:20;;;;;;;15.90;11.43;;;;;;;9.62;100.00;100222.47;4970261;28;20199;-65
2023/10/11 05:25:12;;;;;;;15.73;11.33;;;;;;;9.78;100.00;100240.53;4969853;28;20588;-65
2023/10/11 05:27:47;;;;;;;14.50;10.80;;;;;;;9.85;100.00;100241.91;4970160;28;20287;-64
2023/10/11 05:30:16;;;;;;;17.57;11.73;;;;;;;9.84;100.00;100241.97;4979717;28;20630;-65
2023/10/11 05:33:14;;;;;;;16.73;11.00;;;;;;;9.71;100.00;100240.91;4989593;28;20602;-65
2023/10/11 05:52:13;;;;;;;17.93;12.37;;;;;;;9.67;100.00;100235.94;4999226;28;20250;-64
2023/10/11 05:54:42;;;;;;;17.33;12.23;;;;;;;9.82;100.00;100236.06;4994633;28;20219;-64
2023/10/11 05:57:07;;;;;;;20.07;12.60;;;;;;;9.88;100.00;100240.09;4993527;28;20221;-64
2023/10/11 05:59:37;;;;;;;16.47;11.97;;;;;;;9.91;100.00;100252.78;4994816;28;20215;-64
2023/10/11 06:02:07;;;;;;;15.30;10.67;;;;;;;9.91;100.00;100250.22;4967045;28;20228;-64
2023/10/11 06:04:39;;;;;;;17.03;11.80;;;;;;;9.91;100.00;100248.50;4988121;28;20195;-65
2023/10/11 06:07:05;;;;;;;15.83;11.40;;;;;;;9.95;100.00;100256.88;4991307;28;20187;-65
2023/10/11 06:09:31;;;;;;;15.13;10.87;;;;;;;9.95;100.00;100262.84;4987116;28;20180;-63
2023/10/11 06:11:57;;;;;;;15.90;11.83;;;;;;;9.99;100.00;100263.53;4987125;28;20318;-64
2023/10/11 06:14:23;;;;;;;14.33;10.83;;;;;;;10.04;100.00;100276.16;4993874;28;20603;-63
2023/10/11 06:16:49;;;;;;;14.70;11.20;;;;;;;10.12;100.00;100281.72;4990752;28;20207;-63
2023/10/11 06:19:16;;;;;;;13.97;10.83;;;;;;;10.21;100.00;100283.00;4983032;28;20188;-63
2023/10/11 06:22:09;;;;;;;13.90;11.70;;;;;;;10.08;100.00;100275.09;4981701;28;20292;-64
2023/10/11 06:24:39;;;;;;;15.97;10.90;;;;;;;10.01;100.00;100277.94;4990997;28;20716;-63
2023/10/11 06:28:09;;;;;;;16.60;11.10;;;;;;;10.24;100.00;100273.41;4990828;28;20183;-65
2023/10/11 06:29:57;;;;;;;19.60;11.73;;;;;;;10.41;100.00;100287.19;4994031;28;20195;-65
2023/10/11 06:32:23;;;;;;;19.57;12.27;;;;;;;10.57;100.00;100282.91;4994725;28;20219;-64
2023/10/11 06:34:52;;;;;;;15.60;10.20;;;;;;;10.46;100.00;100283.47;4993847;28;20184;-65
2023/10/11 06:37:24;;;;;;;16.13;10.23;;;;;;;10.52;100.00;100279.75;4994001;28;20542;-63
2023/10/11 06:42:21;;;;;;;18.20;10.43;;;;;;;11.15;100.00;100291.06;4983037;28;20318;-63
2023/10/11 06:44:53;;;;;;;17.00;11.70;;;;;;;11.48;100.00;100292.69;4992365;28;20721;-66
2023/10/11 06:47:20;;;;;;;19.60;9.87;;;;;;;12.58;100.00;100283.88;4993056;28;20175;-65
2023/10/11 06:49:56;;;;;;;15.10;9.20;;;;;;;13.97;100.00;100266.63;4993829;28;20305;-66
2023/10/11 06:52:26;;;;;;;11.40;8.40;;;;;;;15.95;100.00;100255.44;4970085;28;20701;-66
2023/10/11 06:55:27;;;;;;;13.57;8.87;;;;;;;17.18;100.00;100246.91;4990573;28;20190;-66
2023/10/11 06:57:51;;;;;;;12.63;7.90;;;;;;;18.08;100.00;100252.69;4990038;28;20198;-66
2023/10/11 07:00:36;;;;;;;13.93;8.77;;;;;;;19.03;100.00;100259.38;4985350;28;20219;-66
2023/10/11 07:03:07;;;;;;;16.67;8.67;;;;;;;18.90;100.00;100250.94;4982445;28;20214;-67
2023/10/11 07:05:40;;;;;;;13.83;8.80;;;;;;;20.09;100.00;100259.44;4983490;28;20180;-66
2023/10/11 07:08:06;;;;;;;10.50;7.67;;;;;;;20.03;100.00;100254.78;4993373;28;20183;-66
2023/10/11 07:10:32;;;;;;;15.83;8.53;;;;;;;20.44;100.00;100246.69;4976250;28;20227;-67
2023/10/11 07:13:03;;;;;;;14.40;8.47;;;;;;;21.05;100.00;100244.44;5000712;28;20266;-68
2023/10/11 07:15:37;;;;;;;17.47;7.30;;;;;;;21.45;99.95;100253.66;4975171;28;20184;-67
2023/10/11 07:18:25;;;;;;;12.23;8.13;;;;;;;21.96;96.89;100235.53;4991334;28;20190;-65
2023/10/11 07:20:58;;;;;;;12.90;8.20;;;;;;;21.15;100.00;100237.38;4984862;28;20261;-67
2023/10/11 07:23:35;;;;;;;25.97;8.77;;;;;;;19.61;100.00;100248.13;4997235;28;20219;-65
2023/10/11 07:26:22;;;;;;;15.83;8.70;;;;;;;18.54;100.00;100269.59;4991422;28;20188;-65
2023/10/11 07:28:51;;;;;;;16.37;9.43;;;;;;;17.69;100.00;100267.06;4992512;28;20187;-66
2023/10/11 07:31:17;;;;;;;15.17;9.93;;;;;;;17.40;100.00;100274.63;4954307;28;20338;-65
2023/10/11 07:33:49;;;;;;;13.13;9.40;;;;;;;17.27;100.00;100278.22;4987593;28;20187;-66
2023/10/11 07:36:15;;;;;;;16.37;9.73;;;;;;;17.21;100.00;100281.28;4981043;28;20175;-65
2023/10/11 07:38:43;;;;;;;13.47;10.13;;;;;;;17.17;100.00;100279.09;4990967;28;20559;-65
2023/10/11 07:41:17;;;;;;;16.63;10.27;;;;;;;17.02;100.00;100278.53;4991413;28;20226;-66
2023/10/11 07:43:45;;;;;;;14.53;9.60;;;;;;;16.72;100.00;100280.78;4994477;28;20504;-67
2023/10/11 07:46:10;;;;;;;14.73;9.80;;;;;;;16.59;100.00;100287.84;4991241;28;20214;-65
2023/10/11 07:48:36;;;;;;;20.83;11.07;;;;;;;16.57;100.00;100276.75;4991091;28;20226;-66
2023/10/11 07:51:09;;;;;;;17.80;10.13;;;;;;;16.62;100.00;100272.00;4989538;28;20233;-66
2023/10/11 07:53:36;;;;;;;16.87;10.00;;;;;;;16.59;100.00;100262.69;4998013;28;20190;-67
2023/10/11 07:56:03;;;;;;;18.93;9.03;;;;;;;16.57;100.00;100268.97;4990297;28;20378;-67
2023/10/11 07:58:32;;;;;;;17.43;9.57;;;;;;;16.57;100.00;100275.00;4990845;28;20215;-67
2023/10/11 08:01:02;;;;;;;20.73;9.77;;;;;;;16.48;100.00;100267.91;4989295;28;20728;-65
2023/10/11 08:03:34;;;;;;;16.57;9.37;;;;;;;16.37;100.00;100268.75;4985882;28;20187;-66
2023/10/11 08:06:05;;;;;;;12.97;9.47;;;;;;;16.35;100.00;100270.63;4991256;28;20214;-66
2023/10/11 08:08:31;;;;;;;20.73;9.90;;;;;;;16.44;100.00;100282.06;4992075;28;20184;-66
2023/10/11 08:10:56;;;;;;;15.80;8.90;;;;;;;16.28;100.00;100278.03;4988571;28;20301;-66
2023/10/11 08:13:25;;;;;;;22.20;9.97;;;;;;;16.41;100.00;100279.69;5000241;28;20271;-65
2023/10/11 08:15:55;;;;;;;15.23;8.93;;;;;;;16.38;100.00;100293.72;4981959;28;20183;-65
2023/10/11 08:18:21;;;;;;;29.87;10.10;;;;;;;16.14;100.00;100292.06;4981851;28;20605;-66
2023/10/11 08:20:47;;;;;;;17.47;9.70;;;;;;;16.12;100.00;100278.38;4987112;28;20357;-65
2023/10/11 08:23:13;;;;;;;18.50;9.90;;;;;;;16.24;100.00;100270.59;5000612;28;20579;-62
2023/10/11 08:25:40;;;;;;;17.77;9.83;;;;;;;16.36;100.00;100274.88;4991575;28;20258;-62
2023/10/11 08:28:12;;;;;;;19.33;9.83;;;;;;;16.27;100.00;100281.59;4991713;28;20187;-61
2023/10/11 08:30:39;;;;;;;18.63;9.33;;;;;;;16.43;100.00;100264.81;4984936;28;20292;-62
2023/10/11 08:33:04;;;;;;;22.57;9.93;;;;;;;16.60;100.00;100258.34;5001520;28;20179;-62
2023/10/11 08:35:32;;;;;;;17.03;9.77;;;;;;;16.53;100.00;100262.34;4991488;28;20668;-64
2023/10/11 08:38:05;;;;;;;21.03;9.20;;;;;;;16.67;100.00;100261.28;4991990;28;20256;-65
2023/10/11 08:40:37;;;;;;;20.00;8.60;;;;;;;16.82;100.00;100259.25;4982869;28;20242;-66
2023/10/11 08:43:03;;;;;;;14.77;8.50;;;;;;;16.91;100.00;100266.34;4994363;28;20207;-66
2023/10/11 08:45:33;;;;;;;16.50;9.87;;;;;;;16.94;100.00;100271.31;4988831;28;20195;-67
2023/10/11 08:48:06;;;;;;;15.17;9.20;;;;;;;17.03;100.00;100257.63;4986164;28;20194;-66
2023/10/11 08:50:34;;;;;;;18.57;9.43;;;;;;;17.25;100.00;100255.88;4979154;28;20234;-66
2023/10/11 08:53:01;;;;;;;16.70;9.70;;;;;;;17.56;100.00;100256.00;4977822;28;20184;-66
2023/10/11 08:55:26;;;;;;;18.13;9.40;;;;;;;18.78;100.00;100264.06;4990813;28;20172;-67
2023/10/11 08:57:53;;;;;;;17.47;9.30;;;;;;;20.66;100.00;100269.00;4991549;28;20249;-66
2023/10/11 09:00:31;;;;;;;18.50;9.17;;;;;;;23.08;97.42;100260.91;4983898;28;20705;-66
2023/10/11 09:02:58;;;;;;;20.30;10.07;;;;;;;23.09;93.05;100258.09;4974126;28;20246;-66
2023/10/11 09:05:42;;;;;;;21.13;9.37;;;;;;;24.39;83.46;100262.59;4992044;28;20183;-66
2023/10/11 09:08:19;;;;;;;18.95;9.43;;;;;;;25.12;76.47;100273.75;4989812;28;20187;-66
2023/10/11 09:10:49;;;;;;;19.85;10.05;;;;;;;26.94;61.61;100277.25;4984628;28;20238;-67
2023/10/11 09:13:25;;;;;;;17.17;9.75;;;;;;;26.93;57.93;100275.59;5000913;28;20179;-67
2023/10/11 09:15:54;;;;;;;22.42;10.52;;;;;;;28.00;52.24;100284.41;4995573;28;20199;-65
2023/10/11 09:18:20;;;;;;;22.48;10.07;;;;;;;29.37;46.99;100283.72;4994353;28;20207;-65
2023/10/11 09:20:55;;;;;;;21.95;10.30;;;;;;;28.76;47.31;100287.25;4987287;28;20238;-65
2023/10/11 09:23:38;;;;;;;19.90;9.88;;;;;;;29.70;43.41;100280.25;4983192;28;20194;-66
2023/10/11 09:26:05;;;;;;;24.90;9.73;;;;;;;30.18;43.71;100273.03;4994326;28;20218;-66
2023/10/11 09:28:40;;;;;;;21.27;8.70;;;;;;;30.61;42.06;100272.47;4993852;28;20262;-65
2023/10/11 09:31:15;;;;;;;26.67;9.85;;;;;;;30.74;41.08;100275.06;4993499;28;20341;-63
2023/10/11 09:33:49;;;;;;;19.52;9.20;;;;;;;31.19;40.71;100274.19;4989457;28;20624;-65
2023/10/11 09:36:19;;;;;;;17.17;8.90;;;;;;;31.56;39.53;100281.47;4994036;28;20241;-66
2023/10/11 09:38:45;;;;;;;20.52;8.45;;;;;;;31.36;40.37;100273.66;4994974;28;20969;-65
2023/10/11 09:41:13;;;;;;;15.07;8.57;;;;;;;32.18;38.70;100276.13;4980785;28;20242;-66
2023/10/11 09:43:46;;;;;;;14.65;8.40;;;;;;;31.97;37.38;100273.94;4977472;28;20198;-67
2023/10/11 09:46:13;;;;;;;22.75;8.55;;;;;;;31.32;39.91;100275.94;4985672;28;20262;-66
2023/10/11 09:48:42;;;;;;;19.33;8.38;;;;;;;31.50;40.16;100269.03;4993100;28;20570;-66
2023/10/11 09:51:17;;;;;;;16.58;7.75;;;;;;;31.74;38.11;100278.03;4993283;28;20230;-66
2023/10/11 09:53:49;;;;;;;18.13;7.70;;;;;;;33.10;36.79;100278.84;4982735;28;20659;-66
2023/10/11 09:56:36;;;;;;;13.55;6.68;;;;;;;32.25;36.08;100275.28;4994909;28;20242;-68
2023/10/11 09:59:22;;;;;;;15.05;6.95;;;;;;;32.78;35.45;100277.25;4985939;28;20643;-67
2023/10/11 10:01:56;;;;;;;13.48;6.88;;;;;;;33.13;35.85;100263.22;4987130;28;20725;-67
2023/10/11 10:04:49;;;;;;;16.27;6.78;;;;;;;34.22;33.83;100269.13;4995982;28;20213;-66
2023/10/11 10:07:22;;;;;;;12.48;6.07;;;;;;;33.02;35.18;100272.00;4980839;28;20181;-67
2023/10/11 10:10:00;;;;;;;13.07;5.28;;;;;;;32.16;36.64;100267.56;4993383;28;20261;-66
2023/10/11 10:12:43;;;;;;;14.57;5.43;;;;;;;30.65;39.13;100265.72;4993359;28;20588;-67
2023/10/11 10:15:13;;;;;;;13.75;5.38;;;;;;;30.02;41.41;100264.53;4993238;28;20233;-66
2023/10/11 10:18:03;;;;;;;13.13;5.38;;;;;;;27.94;45.96;100258.75;4992447;28;20252;-66
2023/10/11 10:20:34;;;;;;;17.98;5.30;;;;;;;24.78;66.18;100246.03;4985968;28;20308;-68
2023/10/11 10:23:15;;;;;;;18.50;5.95;;;;;;;24.99;72.74;100234.03;4991762;28;20247;-66
2023/10/11 10:25:46;;;;;;;13.80;5.20;;;;;;;25.12;70.24;100236.91;4993950;28;20296;-67
2023/10/11 10:28:34;;;;;;;11.57;4.65;;;;;;;24.73;73.96;100229.94;4992598;28;20186;-66
2023/10/11 10:31:10;;;;;;;11.50;5.10;;;;;;;24.75;73.24;100227.16;4985082;28;20237;-67
2023/10/11 10:33:40;;;;;;;9.68;5.53;;;;;;;24.64;74.34;100220.44;4982346;28;20262;-66
2023/10/11 10:36:18;;;;;;;16.50;5.18;;;;;;;24.02;75.38;100232.50;5002772;28;20658;-67
2023/10/11 10:39:46;;;;;;;18.05;5.72;;;;;;;23.77;80.84;100216.78;4991832;28;20199;-66
2023/10/11 10:42:12;;;;;;;11.38;5.60;;;;;;;23.93;84.17;100223.84;4991428;28;20298;-66
2023/10/11 10:44:50;;;;;;;13.00;5.50;;;;;;;24.08;77.70;100223.16;4993412;28;20178;-66
2023/10/11 10:47:21;;;;;;;16.30;6.25;;;;;;;24.16;76.38;100229.19;4985468;28;20176;-66
2023/10/11 10:49:50;;;;;;;14.02;5.22;;;;;;;23.93;72.50;100223.03;4993042;28;20270;-65
2023/10/11 10:52:17;;;;;;;14.77;5.53;;;;;;;23.79;79.53;100220.06;4993765;28;20241;-65
2023/10/11 10:55:03;;;;;;;13.20;5.82;;;;;;;23.85;79.19;100221.19;4992958;28;20194;-67
2023/10/11 10:57:33;;;;;;;13.05;5.10;;;;;;;23.88;77.21;100217.41;4991807;28;20197;-67
2023/10/11 11:00:00;;;;;;;11.23;5.40;;;;;;;23.95;76.50;100211.38;4993137;28;20184;-67
2023/10/11 11:02:26;;;;;;;18.05;5.65;;;;;;;24.10;83.30;100215.91;4980564;28;20246;-67
2023/10/11 11:04:51;;;;;;;15.00;5.10;;;;;;;24.09;74.97;100204.56;4993043;28;20682;-66
2023/10/11 11:07:23;;;;;;;12.27;5.50;;;;;;;24.16;76.67;100202.06;4992767;28;20596;-66
2023/10/11 11:09:54;;;;;;;9.60;4.90;;;;;;;24.19;71.52;100199.13;4993141;28;20189;-67
2023/10/11 11:12:27;;;;;;;19.60;5.47;;;;;;;24.33;75.96;100192.31;4961008;28;20270;-67
2023/10/11 11:14:54;;;;;;;11.05;5.35;;;;;;;24.32;79.22;100188.88;4988513;28;20180;-67
2023/10/11 11:17:20;;;;;;;14.95;4.65;;;;;;;24.47;70.59;100193.41;4991673;28;20207;-65
2023/10/11 11:23:01;;;;;;;13.02;4.93;;;;;;;24.37;67.10;100184.91;4978887;28;20649;-66
2023/10/11 11:25:27;;;;;;;13.18;5.10;;;;;;;24.40;64.57;100179.28;4993834;28;20182;-65
2023/10/11 11:28:18;;;;;;;19.45;5.63;;;;;;;24.35;60.65;100182.47;4992824;28;20231;-65
2023/10/11 11:31:06;;;;;;;19.58;5.22;;;;;;;24.53;62.68;100173.50;4971404;28;20234;-65
2023/10/11 11:33:35;;;;;;;11.52;4.72;;;;;;;24.42;58.20;100172.06;4999040;28;20379;-65
2023/10/11 11:36:10;;;;;;;10.32;4.50;;;;;;;24.38;55.44;100168.16;4993616;28;20201;-65
2023/10/11 11:38:37;;;;;;;10.70;5.22;;;;;;;24.52;55.56;100172.66;4992622;28;20186;-66
2023/10/11 11:41:05;;;;;;;13.35;5.05;;;;;;;24.48;53.37;100152.97;4980423;28;20366;-65
2023/10/11 11:43:33;;;;;;;14.15;4.97;;;;;;;24.56;54.58;100152.94;5001313;28;20225;-66
2023/10/11 11:46:01;;;;;;;10.95;5.22;;;;;;;24.64;53.64;100147.59;5010111;28;20229;-67
2023/10/11 11:48:27;;;;;;;8.30;4.97;;;;;;;24.77;52.29;100143.59;4992764;28;20218;-67
2023/10/11 11:50:56;;;;;;;9.88;5.57;;;;;;;24.88;52.53;100139.75;4996288;28;20257;-68
2023/10/11 11:53:21;;;;;;;11.57;5.38;;;;;;;24.95;50.76;100138.84;4990475;28;20198;-68
2023/10/11 11:55:46;;;;;;;10.43;4.00;;;;;;;24.86;50.26;100134.66;5005931;28;20183;-68
2023/10/11 11:58:15;;;;;;;11.75;4.82;;;;;;;24.76;49.87;100129.63;5005958;28;20197;-67
2023/10/11 12:00:45;;;;;;;14.45;4.75;;;;;;;24.83;50.94;100119.22;4978814;28;20246;-66
2023/10/11 12:03:11;;;;;;;12.73;4.78;;;;;;;24.84;53.25;100120.88;4989644;28;20197;-64
2023/10/11 12:05:43;;;;;;;8.20;3.88;;;;;;;24.80;55.31;100119.59;4990497;28;20673;-64
2023/10/11 12:08:21;;;;;;;18.50;4.93;;;;;;;24.75;54.70;100116.69;4991996;28;20650;-65